sensor_id;sensor_type;location;lat;lon;timestamp;temperature;humidity
20534;DHT22;12929;56.822;26.056;2023-11-22T00:01:22;-7.60;99.90
20534;DHT22;12929;56.822;26.056;2023-11-22T00:03:52;-7.50;99.90
20534;DHT22;12929;56.822;26.056;2023-11-22T00:06:20;-7.60;99.90
20534;DHT22;12929;56.822;26.056;2023-11-22T00:08:48;-7.70;99.90
20534;DHT22;12929;56.822;26.056;2023-11-22T00:11:15;-7.60;99.90
20534;DHT22;12929;56.822;26.056;2023-11-22T00:13:43;-7.40;99.90
20534;DHT22;12929;56.822;26.056;2023-11-22T00:16:11;-7.50;99.90
20534;DHT22;12929;56.822;26.056;2023-11-22T00:18:39;-7.40;99.90
20534;DHT22;12929;56.822;26.056;2023-11-22T00:21:08;-7.40;99.90
20534;DHT22;12929;56.822;26.056;2023-11-22T00:23:35;-7.40;99.90
20534;DHT22;12929;56.822;26.056;2023-11-22T00:26:03;-7.30;99.90
20534;DHT22;12929;56.822;26.056;2023-11-22T00:28:32;-7.30;99.90
20534;DHT22;12929;56.822;26.056;2023-11-22T00:31:01;-7.20;99.90
20534;DHT22;12929;56.822;26.056;2023-11-22T00:33:28;-7.20;99.90
20534;DHT22;12929;56.822;26.056;2023-11-22T00:35:56;-7.30;99.90
20534;DHT22;12929;56.822;26.056;2023-11-22T00:38:27;-7.20;99.90
20534;DHT22;12929;56.822;26.056;2023-11-22T00:40:54;-7.20;99.90
20534;DHT22;12929;56.822;26.056;2023-11-22T00:43:22;-7.10;99.90
20534;DHT22;12929;56.822;26.056;2023-11-22T00:45:50;-7.20;99.90
20534;DHT22;12929;56.822;26.056;2023-11-22T00:48:18;-7.30;99.90
20534;DHT22;12929;56.822;26.056;2023-11-22T00:50:46;-7.20;99.90
20534;DHT22;12929;56.822;26.056;2023-11-22T00:53:13;-7.20;99.90
20534;DHT22;12929;56.822;26.056;2023-11-22T00:55:42;-7.10;99.90
20534;DHT22;12929;56.822;26.056;2023-11-22T00:58:10;-7.00;99.90
20534;DHT22;12929;56.822;26.056;2023-11-22T01:00:38;-7.00;99.90
20534;DHT22;12929;56.822;26.056;2023-11-22T01:03:06;-7.00;99.90
20534;DHT22;12929;56.822;26.056;2023-11-22T01:05:36;-7.10;99.90
20534;DHT22;12929;56.822;26.056;2023-11-22T01:08:03;-7.20;99.90
20534;DHT22;12929;56.822;26.056;2023-11-22T01:10:31;-7.40;99.90
20534;DHT22;12929;56.822;26.056;2023-11-22T01:12:58;-7.70;99.90
20534;DHT22;12929;56.822;26.056;2023-11-22T01:15:26;-7.60;99.90
20534;DHT22;12929;56.822;26.056;2023-11-22T01:17:54;-7.40;99.90
20534;DHT22;12929;56.822;26.056;2023-11-22T01:20:21;-7.30;99.90
20534;DHT22;12929;56.822;26.056;2023-11-22T01:22:50;-7.30;99.90
20534;DHT22;12929;56.822;26.056;2023-11-22T01:25:18;-7.20;99.90
20534;DHT22;12929;56.822;26.056;2023-11-22T01:27:46;-7.10;99.90
20534;DHT22;12929;56.822;26.056;2023-11-22T01:30:14;-7.20;99.90
20534;DHT22;12929;56.822;26.056;2023-11-22T01:32:43;-7.20;99.90
20534;DHT22;12929;56.822;26.056;2023-11-22T01:35:13;-7.20;99.90
20534;DHT22;12929;56.822;26.056;2023-11-22T01:37:41;-7.30;99.90
20534;DHT22;12929;56.822;26.056;2023-11-22T01:40:10;-7.40;99.90
20534;DHT22;12929;56.822;26.056;2023-11-22T01:42:37;-7.30;99.90
20534;DHT22;12929;56.822;26.056;2023-11-22T01:45:08;-7.40;99.90
20534;DHT22;12929;56.822;26.056;2023-11-22T01:47:36;-7.50;99.90
20534;DHT22;12929;56.822;26.056;2023-11-22T01:50:06;-7.60;99.90
20534;DHT22;12929;56.822;26.056;2023-11-22T01:52:36;-7.50;99.90
20534;DHT22;12929;56.822;26.056;2023-11-22T01:55:04;-7.60;99.90
20534;DHT22;12929;56.822;26.056;2023-11-22T01:57:33;-7.50;99.90
20534;DHT22;12929;56.822;26.056;2023-11-22T02:00:05;-7.50;99.90
20534;DHT22;12929;56.822;26.056;2023-11-22T02:02:41;-7.50;99.90
20534;DHT22;12929;56.822;26.056;2023-11-22T02:05:10;-7.40;99.90
20534;DHT22;12929;56.822;26.056;2023-11-22T02:07:39;-7.30;99.90
20534;DHT22;12929;56.822;26.056;2023-11-22T02:10:10;-7.30;99.90
20534;DHT22;12929;56.822;26.056;2023-11-22T02:12:37;-7.30;99.90
20534;DHT22;12929;56.822;26.056;2023-11-22T02:15:06;-7.20;99.90
20534;DHT22;12929;56.822;26.056;2023-11-22T02:17:34;-7.30;99.90
20534;DHT22;12929;56.822;26.056;2023-11-22T02:20:02;-7.30;99.90
20534;DHT22;12929;56.822;26.056;2023-11-22T02:22:33;-7.40;99.90
20534;DHT22;12929;56.822;26.056;2023-11-22T02:25:01;-7.40;99.90
20534;DHT22;12929;56.822;26.056;2023-11-22T02:27:28;-7.50;99.90
20534;DHT22;12929;56.822;26.056;2023-11-22T02:29:56;-7.50;99.90
20534;DHT22;12929;56.822;26.056;2023-11-22T02:32:24;-7.60;99.90
20534;DHT22;12929;56.822;26.056;2023-11-22T02:34:51;-7.60;99.90
20534;DHT22;12929;56.822;26.056;2023-11-22T02:37:20;-7.50;99.90
20534;DHT22;12929;56.822;26.056;2023-11-22T02:40:18;-7.60;99.90
20534;DHT22;12929;56.822;26.056;2023-11-22T02:42:42;-7.60;99.90
20534;DHT22;12929;56.822;26.056;2023-11-22T02:45:10;-7.70;99.90
20534;DHT22;12929;56.822;26.056;2023-11-22T02:47:38;-7.60;99.90
20534;DHT22;12929;56.822;26.056;2023-11-22T02:50:06;-7.60;99.90
20534;DHT22;12929;56.822;26.056;2023-11-22T02:52:34;-7.50;99.90
20534;DHT22;12929;56.822;26.056;2023-11-22T02:55:01;-7.50;99.90
20534;DHT22;12929;56.822;26.056;2023-11-22T02:57:30;-7.50;99.90
20534;DHT22;12929;56.822;26.056;2023-11-22T02:59:58;-7.40;99.90
20534;DHT22;12929;56.822;26.056;2023-11-22T03:02:26;-7.40;99.90
20534;DHT22;12929;56.822;26.056;2023-11-22T03:04:53;-7.30;99.90
20534;DHT22;12929;56.822;26.056;2023-11-22T03:07:21;-7.40;99.90
20534;DHT22;12929;56.822;26.056;2023-11-22T03:09:49;-7.30;99.90
20534;DHT22;12929;56.822;26.056;2023-11-22T03:12:16;-7.30;99.90
20534;DHT22;12929;56.822;26.056;2023-11-22T03:14:45;-7.30;99.90
20534;DHT22;12929;56.822;26.056;2023-11-22T03:17:15;-7.30;99.90
20534;DHT22;12929;56.822;26.056;2023-11-22T03:19:42;-7.20;99.90
20534;DHT22;12929;56.822;26.056;2023-11-22T03:22:12;-7.20;99.90
20534;DHT22;12929;56.822;26.056;2023-11-22T03:24:40;-7.30;99.90
20534;DHT22;12929;56.822;26.056;2023-11-22T03:27:08;-7.20;99.90
20534;DHT22;12929;56.822;26.056;2023-11-22T03:29:38;-7.30;99.90
20534;DHT22;12929;56.822;26.056;2023-11-22T03:32:06;-7.20;99.90
20534;DHT22;12929;56.822;26.056;2023-11-22T03:34:33;-7.20;99.90
20534;DHT22;12929;56.822;26.056;2023-11-22T03:37:01;-7.30;99.90
20534;DHT22;12929;56.822;26.056;2023-11-22T03:39:29;-7.30;99.90
20534;DHT22;12929;56.822;26.056;2023-11-22T03:41:57;-7.20;99.90
20534;DHT22;12929;56.822;26.056;2023-11-22T03:44:24;-7.20;99.90
20534;DHT22;12929;56.822;26.056;2023-11-22T03:46:53;-7.30;99.90
20534;DHT22;12929;56.822;26.056;2023-11-22T03:49:21;-7.30;99.90
20534;DHT22;12929;56.822;26.056;2023-11-22T03:51:49;-7.30;99.90
20534;DHT22;12929;56.822;26.056;2023-11-22T03:54:16;-7.30;99.90
20534;DHT22;12929;56.822;26.056;2023-11-22T03:56:44;-7.30;99.90
20534;DHT22;12929;56.822;26.056;2023-11-22T03:59:11;-7.30;99.90
20534;DHT22;12929;56.822;26.056;2023-11-22T04:01:39;-7.30;99.90
20534;DHT22;12929;56.822;26.056;2023-11-22T04:04:07;-7.20;99.90
20534;DHT22;12929;56.822;26.056;2023-11-22T04:06:37;-7.40;99.90
20534;DHT22;12929;56.822;26.056;2023-11-22T04:09:04;-7.30;99.90
20534;DHT22;12929;56.822;26.056;2023-11-22T04:11:33;-7.30;99.90
20534;DHT22;12929;56.822;26.056;2023-11-22T04:14:00;-7.30;99.90
20534;DHT22;12929;56.822;26.056;2023-11-22T04:16:28;-7.30;99.90
20534;DHT22;12929;56.822;26.056;2023-11-22T04:18:56;-7.30;99.90
20534;DHT22;12929;56.822;26.056;2023-11-22T04:21:25;-7.30;99.90
20534;DHT22;12929;56.822;26.056;2023-11-22T04:23:52;-7.40;99.90
20534;DHT22;12929;56.822;26.056;2023-11-22T04:26:20;-7.40;99.90
20534;DHT22;12929;56.822;26.056;2023-11-22T04:28:49;-7.50;99.90
20534;DHT22;12929;56.822;26.056;2023-11-22T04:31:16;-7.40;99.90
20534;DHT22;12929;56.822;26.056;2023-11-22T04:33:44;-7.30;99.90
20534;DHT22;12929;56.822;26.056;2023-11-22T04:36:12;-7.40;99.90
20534;DHT22;12929;56.822;26.056;2023-11-22T04:38:39;-7.30;99.90
20534;DHT22;12929;56.822;26.056;2023-11-22T04:41:07;-7.50;99.90
20534;DHT22;12929;56.822;26.056;2023-11-22T04:43:35;-7.40;99.90
20534;DHT22;12929;56.822;26.056;2023-11-22T04:46:04;-7.40;99.90
20534;DHT22;12929;56.822;26.056;2023-11-22T04:48:32;-7.50;99.90
20534;DHT22;12929;56.822;26.056;2023-11-22T04:50:59;-7.40;99.90
20534;DHT22;12929;56.822;26.056;2023-11-22T04:53:27;-7.40;99.90
20534;DHT22;12929;56.822;26.056;2023-11-22T04:55:55;-7.40;99.90
20534;DHT22;12929;56.822;26.056;2023-11-22T04:58:22;-7.40;99.90
20534;DHT22;12929;56.822;26.056;2023-11-22T05:00:50;-7.40;99.90
20534;DHT22;12929;56.822;26.056;2023-11-22T05:03:17;-7.60;99.90
20534;DHT22;12929;56.822;26.056;2023-11-22T05:05:45;-7.60;99.90
20534;DHT22;12929;56.822;26.056;2023-11-22T05:08:13;-7.70;99.90
20534;DHT22;12929;56.822;26.056;2023-11-22T05:10:41;-7.70;99.90
20534;DHT22;12929;56.822;26.056;2023-11-22T05:13:08;-7.70;99.90
20534;DHT22;12929;56.822;26.056;2023-11-22T05:15:36;-7.80;99.90
20534;DHT22;12929;56.822;26.056;2023-11-22T05:18:04;-7.90;99.90
20534;DHT22;12929;56.822;26.056;2023-11-22T05:20:33;-8.00;99.90
20534;DHT22;12929;56.822;26.056;2023-11-22T05:23:00;-8.10;99.90
20534;DHT22;12929;56.822;26.056;2023-11-22T05:25:28;-8.00;99.90
20534;DHT22;12929;56.822;26.056;2023-11-22T05:27:56;-8.00;99.90
20534;DHT22;12929;56.822;26.056;2023-11-22T05:30:24;-8.00;99.90
20534;DHT22;12929;56.822;26.056;2023-11-22T05:32:51;-8.10;99.90
20534;DHT22;12929;56.822;26.056;2023-11-22T05:35:20;-8.20;99.90
20534;DHT22;12929;56.822;26.056;2023-11-22T05:37:48;-8.10;99.90
20534;DHT22;12929;56.822;26.056;2023-11-22T05:40:16;-8.20;99.90
20534;DHT22;12929;56.822;26.056;2023-11-22T05:42:43;-8.20;99.90
20534;DHT22;12929;56.822;26.056;2023-11-22T05:45:11;-8.20;99.90
20534;DHT22;12929;56.822;26.056;2023-11-22T05:47:39;-8.20;99.90
20534;DHT22;12929;56.822;26.056;2023-11-22T05:50:08;-8.10;99.90
20534;DHT22;12929;56.822;26.056;2023-11-22T05:52:36;-8.20;99.90
20534;DHT22;12929;56.822;26.056;2023-11-22T05:55:04;-8.10;99.90
20534;DHT22;12929;56.822;26.056;2023-11-22T05:57:32;-8.20;99.90
20534;DHT22;12929;56.822;26.056;2023-11-22T06:00:00;-8.20;99.90
20534;DHT22;12929;56.822;26.056;2023-11-22T06:02:30;-8.20;99.90
20534;DHT22;12929;56.822;26.056;2023-11-22T06:04:58;-8.20;99.90
20534;DHT22;12929;56.822;26.056;2023-11-22T06:07:26;-8.00;99.90
20534;DHT22;12929;56.822;26.056;2023-11-22T06:09:54;-8.10;99.90
20534;DHT22;12929;56.822;26.056;2023-11-22T06:12:22;-8.20;99.90
20534;DHT22;12929;56.822;26.056;2023-11-22T06:14:49;-8.20;99.90
20534;DHT22;12929;56.822;26.056;2023-11-22T06:17:17;-8.10;99.90
20534;DHT22;12929;56.822;26.056;2023-11-22T06:19:45;-8.10;99.90
20534;DHT22;12929;56.822;26.056;2023-11-22T06:22:13;-7.90;99.90
20534;DHT22;12929;56.822;26.056;2023-11-22T06:24:40;-8.00;99.90
20534;DHT22;12929;56.822;26.056;2023-11-22T06:27:08;-8.00;99.90
20534;DHT22;12929;56.822;26.056;2023-11-22T06:29:36;-8.10;99.90
20534;DHT22;12929;56.822;26.056;2023-11-22T06:32:04;-8.10;99.90
20534;DHT22;12929;56.822;26.056;2023-11-22T06:34:33;-8.00;99.90
20534;DHT22;12929;56.822;26.056;2023-11-22T06:37:03;-8.00;99.90
20534;DHT22;12929;56.822;26.056;2023-11-22T06:39:31;-8.10;99.90
20534;DHT22;12929;56.822;26.056;2023-11-22T06:41:59;-8.00;99.90
20534;DHT22;12929;56.822;26.056;2023-11-22T06:44:26;-8.00;99.90
20534;DHT22;12929;56.822;26.056;2023-11-22T06:46:55;-8.10;99.90
20534;DHT22;12929;56.822;26.056;2023-11-22T06:49:23;-8.00;99.90
20534;DHT22;12929;56.822;26.056;2023-11-22T06:51:51;-8.10;99.90
20534;DHT22;12929;56.822;26.056;2023-11-22T06:54:19;-8.10;99.90
20534;DHT22;12929;56.822;26.056;2023-11-22T06:56:47;-8.10;99.90
20534;DHT22;12929;56.822;26.056;2023-11-22T06:59:15;-8.10;99.90
20534;DHT22;12929;56.822;26.056;2023-11-22T07:01:43;-8.10;99.90
20534;DHT22;12929;56.822;26.056;2023-11-22T07:04:10;-8.00;99.90
20534;DHT22;12929;56.822;26.056;2023-11-22T07:06:38;-8.00;99.90
20534;DHT22;12929;56.822;26.056;2023-11-22T07:09:06;-7.90;99.90
20534;DHT22;12929;56.822;26.056;2023-11-22T07:11:37;-7.80;99.90
20534;DHT22;12929;56.822;26.056;2023-11-22T07:14:05;-7.80;99.90
20534;DHT22;12929;56.822;26.056;2023-11-22T07:16:33;-7.80;99.90
20534;DHT22;12929;56.822;26.056;2023-11-22T07:19:01;-7.70;99.90
20534;DHT22;12929;56.822;26.056;2023-11-22T07:21:30;-7.60;99.90
20534;DHT22;12929;56.822;26.056;2023-11-22T07:23:57;-7.60;99.90
20534;DHT22;12929;56.822;26.056;2023-11-22T07:26:26;-7.60;99.90
20534;DHT22;12929;56.822;26.056;2023-11-22T07:28:54;-7.60;99.90
20534;DHT22;12929;56.822;26.056;2023-11-22T07:31:21;-7.60;99.90
20534;DHT22;12929;56.822;26.056;2023-11-22T07:33:50;-7.50;99.90
20534;DHT22;12929;56.822;26.056;2023-11-22T07:36:18;-7.50;99.90
20534;DHT22;12929;56.822;26.056;2023-11-22T07:38:48;-7.40;99.90
20534;DHT22;12929;56.822;26.056;2023-11-22T07:41:15;-7.40;99.90
20534;DHT22;12929;56.822;26.056;2023-11-22T07:43:43;-7.40;99.90
20534;DHT22;12929;56.822;26.056;2023-11-22T07:46:11;-7.40;99.90
20534;DHT22;12929;56.822;26.056;2023-11-22T07:48:42;-7.40;99.90
20534;DHT22;12929;56.822;26.056;2023-11-22T07:51:10;-7.20;99.90
20534;DHT22;12929;56.822;26.056;2023-11-22T07:53:38;-7.20;99.90
20534;DHT22;12929;56.822;26.056;2023-11-22T07:56:08;-7.10;99.90
20534;DHT22;12929;56.822;26.056;2023-11-22T07:58:37;-7.10;99.90
20534;DHT22;12929;56.822;26.056;2023-11-22T08:01:05;-7.10;99.90
20534;DHT22;12929;56.822;26.056;2023-11-22T08:03:32;-7.10;99.90
20534;DHT22;12929;56.822;26.056;2023-11-22T08:06:02;-7.00;99.90
20534;DHT22;12929;56.822;26.056;2023-11-22T08:08:30;-6.90;99.90
20534;DHT22;12929;56.822;26.056;2023-11-22T08:10:58;-7.00;99.90
20534;DHT22;12929;56.822;26.056;2023-11-22T08:13:26;-6.90;99.90
20534;DHT22;12929;56.822;26.056;2023-11-22T08:15:54;-6.90;99.90
20534;DHT22;12929;56.822;26.056;2023-11-22T08:18:22;-6.70;99.90
20534;DHT22;12929;56.822;26.056;2023-11-22T08:20:50;-6.60;99.90
20534;DHT22;12929;56.822;26.056;2023-11-22T08:23:17;-6.60;99.90
20534;DHT22;12929;56.822;26.056;2023-11-22T08:25:45;-6.60;99.90
20534;DHT22;12929;56.822;26.056;2023-11-22T08:28:13;-6.50;99.90
20534;DHT22;12929;56.822;26.056;2023-11-22T08:30:41;-6.30;99.90
20534;DHT22;12929;56.822;26.056;2023-11-22T08:33:09;-6.20;99.90
20534;DHT22;12929;56.822;26.056;2023-11-22T08:35:37;-6.30;99.90
20534;DHT22;12929;56.822;26.056;2023-11-22T08:38:04;-6.10;99.90
20534;DHT22;12929;56.822;26.056;2023-11-22T08:40:36;-6.10;99.90
20534;DHT22;12929;56.822;26.056;2023-11-22T08:43:04;-6.10;99.90
20534;DHT22;12929;56.822;26.056;2023-11-22T08:45:32;-6.10;99.90
20534;DHT22;12929;56.822;26.056;2023-11-22T08:48:00;-6.00;99.90
20534;DHT22;12929;56.822;26.056;2023-11-22T08:50:28;-5.90;99.90
20534;DHT22;12929;56.822;26.056;2023-11-22T08:52:56;-5.60;99.90
20534;DHT22;12929;56.822;26.056;2023-11-22T08:55:25;-5.50;99.90
20534;DHT22;12929;56.822;26.056;2023-11-22T08:57:53;-5.40;99.90
20534;DHT22;12929;56.822;26.056;2023-11-22T09:00:21;-5.50;99.90
20534;DHT22;12929;56.822;26.056;2023-11-22T09:02:55;-5.50;99.90
20534;DHT22;12929;56.822;26.056;2023-11-22T09:05:23;-5.50;99.90
20534;DHT22;12929;56.822;26.056;2023-11-22T09:07:52;-5.40;99.90
20534;DHT22;12929;56.822;26.056;2023-11-22T09:10:23;-5.30;99.90
20534;DHT22;12929;56.822;26.056;2023-11-22T09:12:51;-5.30;99.90
20534;DHT22;12929;56.822;26.056;2023-11-22T09:15:19;-5.30;99.90
20534;DHT22;12929;56.822;26.056;2023-11-22T09:17:54;-5.30;99.90
20534;DHT22;12929;56.822;26.056;2023-11-22T09:20:22;-5.30;99.90
20534;DHT22;12929;56.822;26.056;2023-11-22T09:22:52;-5.20;99.90
20534;DHT22;12929;56.822;26.056;2023-11-22T09:25:22;-5.10;99.90
20534;DHT22;12929;56.822;26.056;2023-11-22T09:27:52;-5.10;99.90
20534;DHT22;12929;56.822;26.056;2023-11-22T09:30:28;-5.20;99.90
20534;DHT22;12929;56.822;26.056;2023-11-22T09:33:05;-5.10;99.90
20534;DHT22;12929;56.822;26.056;2023-11-22T09:35:34;-5.20;99.90
20534;DHT22;12929;56.822;26.056;2023-11-22T09:38:04;-5.00;99.90
20534;DHT22;12929;56.822;26.056;2023-11-22T09:40:34;-4.80;99.90
20534;DHT22;12929;56.822;26.056;2023-11-22T09:43:04;-4.80;99.90
20534;DHT22;12929;56.822;26.056;2023-11-22T09:45:32;-4.90;99.90
20534;DHT22;12929;56.822;26.056;2023-11-22T09:48:00;-4.70;99.90
20534;DHT22;12929;56.822;26.056;2023-11-22T09:53:33;-4.60;99.90
20534;DHT22;12929;56.822;26.056;2023-11-22T09:56:03;-4.60;99.90
20534;DHT22;12929;56.822;26.056;2023-11-22T09:58:33;-4.40;99.90
20534;DHT22;12929;56.822;26.056;2023-11-22T10:01:01;-4.40;99.90
20534;DHT22;12929;56.822;26.056;2023-11-22T10:03:29;-4.20;99.90
20534;DHT22;12929;56.822;26.056;2023-11-22T10:05:58;-4.00;99.90
20534;DHT22;12929;56.822;26.056;2023-11-22T10:08:26;-3.90;99.90
20534;DHT22;12929;56.822;26.056;2023-11-22T10:10:55;-4.10;99.90
20534;DHT22;12929;56.822;26.056;2023-11-22T10:13:23;-4.20;99.90
20534;DHT22;12929;56.822;26.056;2023-11-22T10:15:52;-4.10;99.90
20534;DHT22;12929;56.822;26.056;2023-11-22T10:18:22;-4.20;99.90
20534;DHT22;12929;56.822;26.056;2023-11-22T10:20:52;-4.40;99.90
20534;DHT22;12929;56.822;26.056;2023-11-22T10:23:20;-4.30;99.90
20534;DHT22;12929;56.822;26.056;2023-11-22T10:25:53;-4.40;99.90
20534;DHT22;12929;56.822;26.056;2023-11-22T10:28:21;-4.30;99.90
20534;DHT22;12929;56.822;26.056;2023-11-22T10:30:51;-4.30;99.90
20534;DHT22;12929;56.822;26.056;2023-11-22T10:33:19;-4.30;99.90
20534;DHT22;12929;56.822;26.056;2023-11-22T10:35:51;-4.30;99.90
20534;DHT22;12929;56.822;26.056;2023-11-22T10:38:21;-4.20;99.90
20534;DHT22;12929;56.822;26.056;2023-11-22T10:40:49;-4.30;99.90
20534;DHT22;12929;56.822;26.056;2023-11-22T10:43:20;-4.30;99.90
20534;DHT22;12929;56.822;26.056;2023-11-22T10:45:51;-4.40;99.90
20534;DHT22;12929;56.822;26.056;2023-11-22T10:48:21;-4.30;99.90
20534;DHT22;12929;56.822;26.056;2023-11-22T10:50:49;-4.30;99.90
20534;DHT22;12929;56.822;26.056;2023-11-22T10:53:21;-4.40;99.90
20534;DHT22;12929;56.822;26.056;2023-11-22T10:55:59;-4.40;99.90
20534;DHT22;12929;56.822;26.056;2023-11-22T10:58:32;-4.40;99.90
20534;DHT22;12929;56.822;26.056;2023-11-22T11:01:04;-4.40;99.90
20534;DHT22;12929;56.822;26.056;2023-11-22T11:03:37;-4.40;99.90
20534;DHT22;12929;56.822;26.056;2023-11-22T11:06:10;-4.30;99.90
20534;DHT22;12929;56.822;26.056;2023-11-22T11:08:41;-4.30;99.90
20534;DHT22;12929;56.822;26.056;2023-11-22T11:11:11;-4.20;99.90
20534;DHT22;12929;56.822;26.056;2023-11-22T11:13:42;-4.30;99.90
20534;DHT22;12929;56.822;26.056;2023-11-22T11:16:10;-4.40;99.90
20534;DHT22;12929;56.822;26.056;2023-11-22T11:18:39;-4.40;99.90
20534;DHT22;12929;56.822;26.056;2023-11-22T11:21:09;-4.30;99.90
20534;DHT22;12929;56.822;26.056;2023-11-22T11:23:40;-4.30;99.90
20534;DHT22;12929;56.822;26.056;2023-11-22T11:26:19;-4.30;99.90
20534;DHT22;12929;56.822;26.056;2023-11-22T11:28:51;-4.40;99.90
20534;DHT22;12929;56.822;26.056;2023-11-22T11:31:23;-4.30;99.90
20534;DHT22;12929;56.822;26.056;2023-11-22T11:33:55;-4.40;99.90
20534;DHT22;12929;56.822;26.056;2023-11-22T11:36:30;-4.50;99.90
20534;DHT22;12929;56.822;26.056;2023-11-22T11:39:00;-4.40;99.90
20534;DHT22;12929;56.822;26.056;2023-11-22T11:41:33;-4.40;99.90
20534;DHT22;12929;56.822;26.056;2023-11-22T11:44:02;-4.40;99.90
20534;DHT22;12929;56.822;26.056;2023-11-22T11:46:30;-4.50;99.90
20534;DHT22;12929;56.822;26.056;2023-11-22T11:48:59;-4.40;99.90
20534;DHT22;12929;56.822;26.056;2023-11-22T11:51:28;-4.50;99.90
20534;DHT22;12929;56.822;26.056;2023-11-22T11:53:56;-4.40;99.90
20534;DHT22;12929;56.822;26.056;2023-11-22T11:56:24;-4.40;99.90
20534;DHT22;12929;56.822;26.056;2023-11-22T11:58:56;-4.40;99.90
20534;DHT22;12929;56.822;26.056;2023-11-22T12:01:30;-4.50;99.90
20534;DHT22;12929;56.822;26.056;2023-11-22T12:04:02;-4.30;99.90
20534;DHT22;12929;56.822;26.056;2023-11-22T12:06:31;-4.00;99.90
20534;DHT22;12929;56.822;26.056;2023-11-22T12:09:01;-3.50;99.90
20534;DHT22;12929;56.822;26.056;2023-11-22T12:11:31;-3.40;99.90
20534;DHT22;12929;56.822;26.056;2023-11-22T12:13:59;-3.20;99.90
20534;DHT22;12929;56.822;26.056;2023-11-22T12:16:26;-3.10;99.90
20534;DHT22;12929;56.822;26.056;2023-11-22T12:18:55;-3.50;99.90
20534;DHT22;12929;56.822;26.056;2023-11-22T12:21:24;-3.70;99.90
20534;DHT22;12929;56.822;26.056;2023-11-22T12:23:52;-3.50;99.90
20534;DHT22;12929;56.822;26.056;2023-11-22T12:26:21;-3.60;99.90
20534;DHT22;12929;56.822;26.056;2023-11-22T12:28:49;-3.80;99.90
20534;DHT22;12929;56.822;26.056;2023-11-22T12:31:31;-3.80;99.90
20534;DHT22;12929;56.822;26.056;2023-11-22T12:34:04;-4.00;99.90
20534;DHT22;12929;56.822;26.056;2023-11-22T12:36:35;-4.10;99.90
20534;DHT22;12929;56.822;26.056;2023-11-22T12:39:08;-4.10;99.90
20534;DHT22;12929;56.822;26.056;2023-11-22T12:41:44;-4.10;99.90
20534;DHT22;12929;56.822;26.056;2023-11-22T12:44:22;-4.20;99.90
20534;DHT22;12929;56.822;26.056;2023-11-22T12:46:52;-4.20;99.90
20534;DHT22;12929;56.822;26.056;2023-11-22T12:49:27;-4.30;99.90
20534;DHT22;12929;56.822;26.056;2023-11-22T12:51:57;-4.30;99.90
20534;DHT22;12929;56.822;26.056;2023-11-22T12:54:25;-4.40;99.90
20534;DHT22;12929;56.822;26.056;2023-11-22T12:56:53;-4.50;99.90
20534;DHT22;12929;56.822;26.056;2023-11-22T12:59:27;-4.50;99.90
20534;DHT22;12929;56.822;26.056;2023-11-22T13:01:55;-4.60;99.90
20534;DHT22;12929;56.822;26.056;2023-11-22T13:04:24;-4.70;99.90
20534;DHT22;12929;56.822;26.056;2023-11-22T13:06:51;-4.70;99.90
20534;DHT22;12929;56.822;26.056;2023-11-22T13:09:21;-4.60;99.90
20534;DHT22;12929;56.822;26.056;2023-11-22T13:11:49;-4.70;99.90
20534;DHT22;12929;56.822;26.056;2023-11-22T13:14:19;-4.70;99.90
20534;DHT22;12929;56.822;26.056;2023-11-22T13:16:47;-4.70;99.90
20534;DHT22;12929;56.822;26.056;2023-11-22T13:19:16;-4.70;99.90
20534;DHT22;12929;56.822;26.056;2023-11-22T13:21:45;-4.80;99.90
20534;DHT22;12929;56.822;26.056;2023-11-22T13:24:15;-4.90;99.90
20534;DHT22;12929;56.822;26.056;2023-11-22T13:26:45;-4.90;99.90
20534;DHT22;12929;56.822;26.056;2023-11-22T13:29:14;-5.10;99.90
20534;DHT22;12929;56.822;26.056;2023-11-22T13:31:42;-5.20;99.90
20534;DHT22;12929;56.822;26.056;2023-11-22T13:34:10;-5.10;99.90
20534;DHT22;12929;56.822;26.056;2023-11-22T13:36:39;-5.20;99.90
20534;DHT22;12929;56.822;26.056;2023-11-22T13:39:10;-5.10;99.90
20534;DHT22;12929;56.822;26.056;2023-11-22T13:41:42;-5.30;99.90
20534;DHT22;12929;56.822;26.056;2023-11-22T13:44:12;-5.30;99.90
20534;DHT22;12929;56.822;26.056;2023-11-22T13:46:42;-5.30;99.90
20534;DHT22;12929;56.822;26.056;2023-11-22T13:49:10;-5.30;99.90
20534;DHT22;12929;56.822;26.056;2023-11-22T13:51:38;-5.20;99.90
20534;DHT22;12929;56.822;26.056;2023-11-22T13:54:07;-5.20;99.90
20534;DHT22;12929;56.822;26.056;2023-11-22T13:56:35;-5.10;99.90
20534;DHT22;12929;56.822;26.056;2023-11-22T13:59:04;-5.20;99.90
20534;DHT22;12929;56.822;26.056;2023-11-22T14:01:32;-5.30;99.90
20534;DHT22;12929;56.822;26.056;2023-11-22T14:04:00;-5.50;99.90
20534;DHT22;12929;56.822;26.056;2023-11-22T14:06:30;-5.50;99.90
20534;DHT22;12929;56.822;26.056;2023-11-22T14:08:58;-5.50;99.90
20534;DHT22;12929;56.822;26.056;2023-11-22T14:11:26;-5.50;99.90
20534;DHT22;12929;56.822;26.056;2023-11-22T14:13:53;-5.40;99.90
20534;DHT22;12929;56.822;26.056;2023-11-22T14:16:21;-5.40;99.90
20534;DHT22;12929;56.822;26.056;2023-11-22T14:18:49;-5.30;99.90
20534;DHT22;12929;56.822;26.056;2023-11-22T14:21:17;-5.50;99.90
20534;DHT22;12929;56.822;26.056;2023-11-22T14:23:45;-5.60;99.90
20534;DHT22;12929;56.822;26.056;2023-11-22T14:26:13;-5.60;99.90
20534;DHT22;12929;56.822;26.056;2023-11-22T14:28:40;-5.60;99.90
20534;DHT22;12929;56.822;26.056;2023-11-22T14:31:09;-5.50;99.90
20534;DHT22;12929;56.822;26.056;2023-11-22T14:33:39;-5.50;99.90
20534;DHT22;12929;56.822;26.056;2023-11-22T14:36:07;-5.50;99.90
20534;DHT22;12929;56.822;26.056;2023-11-22T14:38:35;-5.50;99.90
20534;DHT22;12929;56.822;26.056;2023-11-22T14:41:03;-5.50;99.90
20534;DHT22;12929;56.822;26.056;2023-11-22T14:43:31;-5.60;99.90
20534;DHT22;12929;56.822;26.056;2023-11-22T14:45:59;-5.60;99.90
20534;DHT22;12929;56.822;26.056;2023-11-22T14:48:28;-5.60;99.90
20534;DHT22;12929;56.822;26.056;2023-11-22T14:50:56;-5.60;99.90
20534;DHT22;12929;56.822;26.056;2023-11-22T14:53:24;-5.60;99.90
20534;DHT22;12929;56.822;26.056;2023-11-22T14:55:52;-5.60;99.90
20534;DHT22;12929;56.822;26.056;2023-11-22T14:58:20;-5.50;99.90
20534;DHT22;12929;56.822;26.056;2023-11-22T15:00:48;-5.60;99.90
20534;DHT22;12929;56.822;26.056;2023-11-22T15:03:16;-5.60;99.90
20534;DHT22;12929;56.822;26.056;2023-11-22T15:05:44;-5.70;99.90
20534;DHT22;12929;56.822;26.056;2023-11-22T15:08:11;-5.60;99.90
20534;DHT22;12929;56.822;26.056;2023-11-22T15:10:39;-5.70;99.90
20534;DHT22;12929;56.822;26.056;2023-11-22T15:13:06;-5.70;99.90
20534;DHT22;12929;56.822;26.056;2023-11-22T15:15:34;-5.70;99.90
20534;DHT22;12929;56.822;26.056;2023-11-22T15:18:02;-5.90;99.90
20534;DHT22;12929;56.822;26.056;2023-11-22T15:20:31;-5.80;99.90
20534;DHT22;12929;56.822;26.056;2023-11-22T15:23:00;-5.70;99.90
20534;DHT22;12929;56.822;26.056;2023-11-22T15:25:28;-5.70;99.90
20534;DHT22;12929;56.822;26.056;2023-11-22T15:27:55;-5.70;99.90